ロングイェールビーン の空港の天気 - METARとTAF

スヴァールバル空港 ( ENSB / LYR ) - スヴァールバル諸島・ヤンマイエン島 ロングイェールビーン
飛行場実況気象(Metar)
観測時間01/17 07:20 CET (01/17 06:20 UTC)
風向・風速南南西 6m/s 瞬間風速14m/s
視程10km以上
天気現象弱いしゅう雪
少しの雲 雲底高度 240m
全天の8割程度の雲 雲底高度 1070m
気温-2℃
湿度69%
気圧969hPa
METARENSB 170620Z 20011G27KT 160V240 9999 -SHSN FEW008 BKN035 M02/M07 Q0969 TEMPO 1500 SHSN VV010 RMK WIND 1400FT 20031G41KT
過去の天気等 Google飛行場航空写真 Wunderground天気予報

過去48時間のMETAR

飛行場予報(TAF)
発表時間: -
17日7時 CET ~ 18日7時 CET に一時的に
視程800m
天気現象しゅう雪
全天を覆う雲 鉛直視程 210m
17日12時 CET ~ 17日14時 CET に徐々に
風向・風速西北西 13m/s 瞬間風速 18m/s
18日1時 CET ~ 18日3時 CET に徐々に
風向・風速西北西 8m/s
TAF ENSB 1706/1806 23020G30KT 9999 -SHSN FEW015 BKN030
TEMPO 1706/1806 0800 SHSN VV007
BECMG 1711/1713 29025G35KT
BECMG 1800/1802 30015KT